Mount Joy, Pennsylvania
Current Conditions -  °F | °C
As of 9:53 PM on Saturday 22 Nov 2014 (Local Time) from KLNS Reporting Station
Broken Clouds Broken Clouds  
Wind Chill: 32°   Ceiling: 11000
Heat Index: 36°   Visibility: 10mi
Dew Point: 23°   Wind: 5mph
Humidity: 59%   Direction: 70°ENE
Pressure: 30.21"   Gusts: NA
Location:  40.11°N, 76.51°W
Report Text: KLNS 230253Z AUTO 07004KT 10SM BKN110 02/M05 A3021 RMK AO2 SLP234 T00221050 58019
Loading
Personal Weather Stations






























Interactive Weather Map New forecast layout! Learn more

10-Day Weather Forecast

Advertisements
Track Severe Weather on mobile